Etusivu
METAR-TAF:

METAR-TAF

Lentoasemat :

Reims, Ranska

Leveyspiiri: 49-12-31N, Pituuspiiri: 004-09-24E, korkeus merenpinnasta: 95 m

Tämänhetkinen sää

Tämä raportti tehtiin 35 minuuttia sitten, kello 03.30 UTC
tyyntä
Lämpötila -2°C
Kosteus 93%
Ilmanpaine 1026 hPa
Näkyvyys 10 km tai enemmän
ei pilviä alle 1500 m:ssä eikä cumulonimbus-pilviä

METAR: LFQA 190330Z AUTO 00000KT CAVOK M02/M03 Q1026

Aika: 05:05 (04:05 UTC)


TAF: puuttuu

Säähavainnot ja -ennusteet yli 4000 lentoasemalta (METAR- ja TAF-raportit).

Käytössä olevat sääasemat on merkitty karttaan keltaisilla ja punaisilla pisteillä.

Aseta hiiri pisteen päälle nähdäksesi sääaseman nimen.

Klikkaa sitten nähdäksesi säähavainnot ja -ennusteet.

Kartan vaihtaminen: klikkaa mustalla rastilla varustettuja vihreitä pisteitä, niin voit zoomata sisään; viivalla varustettua vihreää pistettä, niin voit zoomata ulos tai vihreitä nuolia, niin pääset viereisille kartoille.


METAR-TAF: